createdAt,value
2022-11-06T00:01:24.322Z,2.38
2022-11-06T00:03:54.653Z,2.17
2022-11-06T00:06:40.093Z,2.15
2022-11-06T00:09:09.357Z,2.25
2022-11-06T00:11:36.150Z,2.42
2022-11-06T00:14:03.359Z,2.28
2022-11-06T00:16:29.931Z,2.10
2022-11-06T00:18:56.805Z,2.65
2022-11-06T00:21:27.917Z,3.17
2022-11-06T00:23:59.074Z,2.75
2022-11-06T00:26:27.893Z,2.00
2022-11-06T00:28:55.325Z,2.55
2022-11-06T00:31:26.106Z,2.35
2022-11-06T00:33:54.358Z,2.95
2022-11-06T00:36:23.000Z,1.95
2022-11-06T00:38:55.567Z,2.50
2022-11-06T00:41:26.161Z,2.50
2022-11-06T00:43:58.668Z,2.60
2022-11-06T00:46:25.798Z,2.47
2022-11-06T00:48:53.558Z,1.65
2022-11-06T00:51:33.668Z,2.15
2022-11-06T00:54:03.193Z,2.15
2022-11-06T00:56:31.260Z,2.17
2022-11-06T00:59:02.538Z,1.85
2022-11-06T01:01:34.951Z,2.25
2022-11-06T01:04:08.459Z,1.77
2022-11-06T01:06:41.743Z,1.98
2022-11-06T01:09:13.385Z,2.05
2022-11-06T01:12:11.299Z,1.95
2022-11-06T01:14:30.288Z,1.92
2022-11-06T01:16:56.900Z,1.98
2022-11-06T01:19:23.551Z,2.20
2022-11-06T01:21:53.074Z,2.35
2022-11-06T01:24:23.053Z,2.40
2022-11-06T01:27:19.895Z,2.05
2022-11-06T01:29:37.622Z,2.30
2022-11-06T01:32:04.681Z,2.00
2022-11-06T01:34:31.321Z,2.00
2022-11-06T01:36:58.002Z,2.25
2022-11-06T01:39:24.573Z,1.92
2022-11-06T01:41:53.034Z,1.95
2022-11-06T01:44:31.725Z,1.95
2022-11-06T01:46:58.605Z,1.90
2022-11-06T01:49:27.510Z,1.85
2022-11-06T01:52:01.482Z,2.22
2022-11-06T01:54:30.684Z,1.80
2022-11-06T01:57:00.039Z,1.80
2022-11-06T01:59:28.974Z,2.00
2022-11-06T02:01:55.771Z,1.65
2022-11-06T02:04:25.639Z,1.70
2022-11-06T02:06:52.938Z,1.65
2022-11-06T02:09:20.289Z,1.60
2022-11-06T02:11:54.924Z,1.98
2022-11-06T02:14:30.608Z,1.85
2022-11-06T02:17:15.153Z,2.25
2022-11-06T02:19:53.981Z,2.00
2022-11-06T02:22:45.480Z,1.77
2022-11-06T02:25:21.138Z,1.67
2022-11-06T02:28:09.129Z,1.25
2022-11-06T02:30:44.166Z,1.73
2022-11-06T02:33:16.068Z,1.25
2022-11-06T02:35:49.393Z,1.33
2022-11-06T02:38:31.950Z,1.55
2022-11-06T02:41:02.431Z,1.80
2022-11-06T02:43:37.250Z,2.10
2022-11-06T02:46:10.115Z,1.95
2022-11-06T02:48:48.994Z,1.75
2022-11-06T02:51:21.641Z,3.08
2022-11-06T02:53:49.050Z,2.67
2022-11-06T02:56:20.758Z,2.50
2022-11-06T02:59:12.111Z,2.65
2022-11-06T03:01:53.728Z,2.50
2022-11-06T03:04:26.674Z,2.97
2022-11-06T03:07:08.492Z,2.25
2022-11-06T03:09:35.571Z,2.47
2022-11-06T03:12:09.035Z,2.50
2022-11-06T03:14:55.100Z,2.10
2022-11-06T03:17:30.844Z,2.63
2022-11-06T03:20:25.606Z,2.00
2022-11-06T03:23:32.157Z,2.47
2022-11-06T03:26:23.892Z,1.75
2022-11-06T03:28:53.152Z,1.90
2022-11-06T03:31:43.203Z,1.90
2022-11-06T03:34:15.385Z,1.92
2022-11-06T03:36:51.410Z,2.30
2022-11-06T03:39:27.705Z,1.73
2022-11-06T03:42:08.472Z,1.75
2022-11-06T03:44:40.827Z,1.65
2022-11-06T03:47:14.436Z,1.80
2022-11-06T03:49:47.785Z,1.60
2022-11-06T03:52:36.038Z,1.27
2022-11-06T03:55:11.673Z,1.98
2022-11-06T03:58:14.216Z,1.67
2022-11-06T04:00:43.373Z,2.70
2022-11-06T04:03:23.373Z,1.77
2022-11-06T04:06:05.786Z,2.13
2022-11-06T04:08:52.025Z,1.90
2022-11-06T04:11:41.026Z,2.55
2022-11-06T04:14:09.208Z,2.05
2022-11-06T04:16:41.825Z,1.35
2022-11-06T04:19:17.332Z,2.05
2022-11-06T04:22:11.197Z,1.80
2022-11-06T04:25:06.295Z,1.92
2022-11-06T04:27:38.886Z,1.60
2022-11-06T04:30:13.733Z,1.42
2022-11-06T04:33:04.493Z,2.30
2022-11-06T04:35:55.775Z,2.00
2022-11-06T04:38:52.433Z,1.33
2022-11-06T04:41:45.460Z,2.13
2022-11-06T04:44:19.152Z,1.67
2022-11-06T04:46:53.201Z,1.52
2022-11-06T04:49:21.220Z,1.90
2022-11-06T04:51:48.527Z,1.75
2022-11-06T04:54:15.778Z,2.35
2022-11-06T04:56:45.973Z,4.40
2022-11-06T04:59:16.369Z,3.60
2022-11-06T05:01:43.326Z,2.35
2022-11-06T05:04:13.058Z,2.20
2022-11-06T05:06:39.641Z,2.17
2022-11-06T05:09:06.301Z,2.42
2022-11-06T05:11:32.910Z,2.25
2022-11-06T05:13:59.508Z,1.77
2022-11-06T05:16:26.091Z,2.10
2022-11-06T05:18:52.825Z,1.75
2022-11-06T05:21:38.157Z,1.58
2022-11-06T05:24:05.415Z,2.13
2022-11-06T05:26:32.579Z,1.73
2022-11-06T05:28:59.142Z,1.67
2022-11-06T05:31:26.538Z,1.73
2022-11-06T05:33:53.113Z,1.65
2022-11-06T05:36:19.850Z,1.50
2022-11-06T05:38:46.392Z,1.83
2022-11-06T05:41:13.026Z,1.50
2022-11-06T05:43:39.630Z,1.67
2022-11-06T05:46:15.018Z,1.35
2022-11-06T05:48:50.625Z,1.10
2022-11-06T05:51:17.646Z,1.70
2022-11-06T05:53:44.185Z,1.40
2022-11-06T05:56:10.755Z,1.60
2022-11-06T05:58:37.497Z,1.30
2022-11-06T06:01:04.239Z,1.42
2022-11-06T06:03:30.829Z,1.40
2022-11-06T06:05:57.399Z,1.80
2022-11-06T06:08:24.093Z,1.50
2022-11-06T06:10:50.664Z,1.48
2022-11-06T06:13:17.509Z,1.45
2022-11-06T06:15:44.725Z,1.67
2022-11-06T06:18:11.894Z,1.50
2022-11-06T06:20:39.556Z,1.42
2022-11-06T06:23:09.311Z,1.67
2022-11-06T06:25:36.280Z,1.55
2022-11-06T06:28:02.843Z,1.70
2022-11-06T06:30:29.514Z,1.50
2022-11-06T06:32:56.070Z,1.58
2022-11-06T06:35:22.723Z,1.50
2022-11-06T06:37:53.662Z,1.40
2022-11-06T06:40:21.386Z,1.80
2022-11-06T06:42:47.948Z,1.50
2022-11-06T06:45:15.119Z,1.80
2022-11-06T06:47:42.068Z,1.63
2022-11-06T06:50:09.710Z,1.60
2022-11-06T06:52:36.497Z,2.10
2022-11-06T06:55:03.151Z,1.67
2022-11-06T06:57:29.736Z,1.90
2022-11-06T06:59:56.311Z,1.50
2022-11-06T07:02:22.954Z,1.48
2022-11-06T07:04:49.616Z,1.63
2022-11-06T07:07:16.186Z,1.50
2022-11-06T07:09:42.941Z,1.70
2022-11-06T07:12:12.242Z,1.55
2022-11-06T07:14:38.815Z,1.80
2022-11-06T07:17:05.421Z,1.48
2022-11-06T07:19:32.004Z,1.50
2022-11-06T07:21:58.550Z,1.45
2022-11-06T07:24:25.105Z,1.40
2022-11-06T07:26:51.639Z,1.40
2022-11-06T07:29:18.263Z,2.55
2022-11-06T07:31:44.784Z,3.10
2022-11-06T07:34:11.454Z,2.83
2022-11-06T07:36:38.052Z,2.33
2022-11-06T07:39:04.625Z,2.20
2022-11-06T07:41:31.254Z,4.28
2022-11-06T07:43:57.844Z,2.33
2022-11-06T07:46:24.386Z,4.00
2022-11-06T07:48:51.039Z,2.85
2022-11-06T07:51:17.572Z,2.15
2022-11-06T07:53:44.142Z,2.42
2022-11-06T07:56:11.002Z,1.50
2022-11-06T07:58:38.648Z,1.88
2022-11-06T08:01:05.856Z,2.17
2022-11-06T08:03:32.505Z,2.08
2022-11-06T08:05:59.627Z,3.42
2022-11-06T08:08:28.058Z,2.10
2022-11-06T08:10:55.074Z,2.10
2022-11-06T08:13:21.771Z,1.90
2022-11-06T08:15:48.379Z,5.15
2022-11-06T08:18:15.111Z,3.40
2022-11-06T08:20:42.089Z,2.75
2022-11-06T08:23:11.184Z,2.45
2022-11-06T08:25:38.734Z,2.00
2022-11-06T08:28:05.823Z,1.60
2022-11-06T08:30:32.533Z,1.08
2022-11-06T08:33:04.285Z,1.23
2022-11-06T08:35:31.361Z,1.50
2022-11-06T08:37:58.093Z,1.35
2022-11-06T08:40:29.586Z,1.17
2022-11-06T08:43:08.823Z,1.40
2022-11-06T08:45:41.675Z,1.15
2022-11-06T08:48:09.384Z,1.20
2022-11-06T08:50:40.532Z,0.80
2022-11-06T08:53:07.580Z,1.20
2022-11-06T08:55:35.750Z,1.52
2022-11-06T08:58:02.830Z,1.30
2022-11-06T09:00:29.669Z,1.50
2022-11-06T09:03:01.362Z,1.40
2022-11-06T09:05:29.397Z,1.40
2022-11-06T09:07:56.842Z,1.50
2022-11-06T09:10:24.170Z,1.60
2022-11-06T09:12:51.062Z,1.60
2022-11-06T09:15:17.726Z,4.13
2022-11-06T09:17:49.824Z,4.43
2022-11-06T09:20:18.993Z,1.83
2022-11-06T09:22:46.204Z,1.85
2022-11-06T09:25:13.500Z,1.40
2022-11-06T09:27:57.373Z,1.52
2022-11-06T09:30:27.059Z,1.58
2022-11-06T09:33:02.033Z,1.52
2022-11-06T09:35:31.752Z,1.35
2022-11-06T09:38:06.690Z,1.10
2022-11-06T09:40:50.228Z,1.33
2022-11-06T09:44:02.870Z,1.27
2022-11-06T09:46:29.605Z,1.00
2022-11-06T09:49:17.519Z,1.08
2022-11-06T09:52:13.202Z,0.80
2022-11-06T09:54:55.835Z,0.70
2022-11-06T09:57:34.752Z,0.77
2022-11-06T10:00:03.438Z,0.50
2022-11-06T10:02:40.171Z,0.85
2022-11-06T10:05:27.265Z,0.40
2022-11-06T10:07:57.029Z,0.52
2022-11-06T10:10:55.953Z,0.40
2022-11-06T10:13:49.645Z,0.40
2022-11-06T10:16:28.348Z,0.40
2022-11-06T10:19:08.379Z,0.50
2022-11-06T10:21:55.166Z,0.50
2022-11-06T10:24:30.599Z,0.60
2022-11-06T10:26:58.136Z,0.30
2022-11-06T10:29:43.387Z,0.30
2022-11-06T10:32:17.418Z,0.50
2022-11-06T10:34:49.718Z,0.45
2022-11-06T10:37:29.331Z,0.50
2022-11-06T10:39:56.756Z,0.43
2022-11-06T10:42:36.769Z,0.40
2022-11-06T10:45:14.446Z,0.50
2022-11-06T10:47:59.192Z,0.60
2022-11-06T10:50:38.218Z,0.57
2022-11-06T10:53:14.718Z,0.50
2022-11-06T10:55:58.278Z,0.30
2022-11-06T10:58:30.122Z,0.30
2022-11-06T11:01:01.340Z,0.57
2022-11-06T11:03:32.727Z,0.50
2022-11-06T11:08:28.849Z,0.57
2022-11-06T11:11:20.253Z,0.63
2022-11-06T11:13:48.293Z,0.60
2022-11-06T11:16:44.868Z,0.35
2022-11-06T11:19:36.770Z,0.50
2022-11-06T11:22:19.203Z,0.60
2022-11-06T11:24:59.483Z,0.30
2022-11-06T11:27:26.273Z,0.38
2022-11-06T11:29:52.870Z,0.30
2022-11-06T11:32:21.711Z,0.50
2022-11-06T11:34:56.614Z,0.28
2022-11-06T11:37:30.596Z,0.50
2022-11-06T11:40:19.706Z,0.60
2022-11-06T11:42:46.390Z,0.40
2022-11-06T11:45:17.250Z,0.38
2022-11-06T11:47:47.341Z,0.40
2022-11-06T11:50:33.302Z,0.50
2022-11-06T11:53:19.751Z,0.43
2022-11-06T11:55:48.995Z,0.38
2022-11-06T11:58:25.949Z,0.30
2022-11-06T12:01:01.964Z,0.30
2022-11-06T12:03:38.065Z,0.40
2022-11-06T12:06:14.965Z,0.63
2022-11-06T12:08:48.674Z,0.30
2022-11-06T12:11:27.943Z,0.30
2022-11-06T12:14:34.197Z,0.30
2022-11-06T12:17:13.027Z,0.30
2022-11-06T12:19:42.140Z,0.30
2022-11-06T12:22:34.306Z,0.50
2022-11-06T12:25:11.125Z,0.38
2022-11-06T12:27:43.915Z,0.38
2022-11-06T12:30:12.262Z,0.40
2022-11-06T12:32:44.952Z,0.50
2022-11-06T12:35:21.282Z,0.32
2022-11-06T12:38:06.441Z,0.40
2022-11-06T12:40:39.970Z,0.28
2022-11-06T12:43:16.727Z,0.40
2022-11-06T12:46:11.780Z,0.50
2022-11-06T12:49:01.130Z,0.30
2022-11-06T12:51:47.540Z,0.30
2022-11-06T12:54:37.662Z,0.32
2022-11-06T12:57:21.700Z,0.60
2022-11-06T13:00:10.012Z,0.40
2022-11-06T13:03:13.822Z,0.40
2022-11-06T13:05:57.443Z,0.60
2022-11-06T13:08:33.174Z,0.40
2022-11-06T13:11:13.902Z,0.80
2022-11-06T13:14:06.333Z,0.40
2022-11-06T13:16:38.853Z,0.50
2022-11-06T13:19:27.035Z,0.40
2022-11-06T13:21:56.782Z,0.40
2022-11-06T13:24:33.371Z,0.60
2022-11-06T13:27:15.919Z,0.60
2022-11-06T13:29:43.787Z,0.40
2022-11-06T13:32:16.498Z,0.52
2022-11-06T13:34:50.598Z,0.55
2022-11-06T13:37:20.799Z,0.80
2022-11-06T13:39:55.944Z,0.65
2022-11-06T13:42:24.959Z,0.60
2022-11-06T13:44:53.483Z,0.57
2022-11-06T13:47:33.223Z,0.57
2022-11-06T13:50:19.713Z,0.60
2022-11-06T13:53:24.784Z,0.80
2022-11-06T13:56:15.730Z,0.57
2022-11-06T13:59:23.854Z,0.57
2022-11-06T14:02:15.385Z,0.68
2022-11-06T14:07:12.035Z,0.60
2022-11-06T14:09:44.622Z,0.55
2022-11-06T14:12:21.664Z,0.70
2022-11-06T14:14:49.533Z,0.82
2022-11-06T14:17:16.063Z,0.70
2022-11-06T14:19:50.307Z,0.70
2022-11-06T14:22:31.665Z,0.60
2022-11-06T14:25:01.987Z,0.65
2022-11-06T14:27:29.152Z,0.90
2022-11-06T14:30:17.919Z,0.70
2022-11-06T14:32:47.562Z,1.13
2022-11-06T14:35:29.445Z,0.60
2022-11-06T14:38:18.241Z,0.77
2022-11-06T14:40:45.040Z,0.60
2022-11-06T14:43:27.333Z,0.80
2022-11-06T14:46:21.919Z,0.55
2022-11-06T14:48:52.076Z,0.85
2022-11-06T14:51:26.496Z,0.90
2022-11-06T14:53:58.019Z,0.50
2022-11-06T14:56:33.289Z,0.75
2022-11-06T14:59:06.681Z,0.63
2022-11-06T15:01:35.551Z,0.75
2022-11-06T15:04:15.392Z,0.70
2022-11-06T15:06:45.921Z,0.70
2022-11-06T15:09:21.399Z,0.95
2022-11-06T15:11:55.638Z,0.70
2022-11-06T15:14:22.132Z,0.60
2022-11-06T15:16:54.528Z,0.77
2022-11-06T15:19:23.180Z,0.57
2022-11-06T15:22:15.442Z,0.70
2022-11-06T15:24:48.035Z,0.80
2022-11-06T15:27:23.840Z,0.55
2022-11-06T15:29:57.401Z,0.70
2022-11-06T15:32:27.226Z,0.73
2022-11-06T15:35:01.085Z,0.85
2022-11-06T15:37:32.695Z,0.93
2022-11-06T15:42:32.075Z,1.50
2022-11-06T15:45:25.353Z,0.80
2022-11-06T15:48:01.069Z,0.85
2022-11-06T15:50:36.447Z,0.70
2022-11-06T15:53:12.369Z,0.98
2022-11-06T15:56:04.854Z,0.60
2022-11-06T15:58:34.356Z,0.52
2022-11-06T16:01:02.572Z,0.80
2022-11-06T16:03:32.301Z,0.45
2022-11-06T16:06:02.646Z,0.50
2022-11-06T16:08:31.390Z,0.65
2022-11-06T16:10:59.999Z,0.52
2022-11-06T16:13:27.759Z,0.60
2022-11-06T16:15:55.667Z,0.85
2022-11-06T16:18:39.021Z,0.90
2022-11-06T16:21:21.281Z,0.73
2022-11-06T16:24:09.572Z,0.77
2022-11-06T16:26:46.041Z,0.80
2022-11-06T16:29:19.393Z,0.73
2022-11-06T16:31:48.294Z,0.60
2022-11-06T16:34:46.033Z,0.50
2022-11-06T16:37:18.613Z,0.95
2022-11-06T16:39:53.580Z,0.63
2022-11-06T16:42:39.923Z,1.02
2022-11-06T16:45:31.279Z,1.05
2022-11-06T16:48:07.004Z,1.15
2022-11-06T16:50:48.697Z,0.90
2022-11-06T16:53:20.455Z,1.50
2022-11-06T16:58:20.601Z,1.65
2022-11-06T17:00:58.768Z,1.65
2022-11-06T17:03:28.175Z,1.58
2022-11-06T17:05:59.026Z,1.45
2022-11-06T17:08:35.950Z,1.00
2022-11-06T17:11:28.903Z,2.05
2022-11-06T17:13:55.691Z,3.25
2022-11-06T17:16:25.098Z,3.13
2022-11-06T17:18:52.100Z,5.35
2022-11-06T17:21:21.378Z,3.80
2022-11-06T17:23:48.858Z,3.40
2022-11-06T17:26:32.064Z,2.88
2022-11-06T17:28:59.670Z,2.70
2022-11-06T17:31:27.060Z,2.67
2022-11-06T17:33:53.881Z,2.70
2022-11-06T17:36:27.592Z,2.53
2022-11-06T17:38:55.316Z,3.08
2022-11-06T17:41:31.389Z,3.22
2022-11-06T17:44:13.394Z,3.50
2022-11-06T17:46:45.375Z,3.20
2022-11-06T17:49:17.572Z,3.67
2022-11-06T17:51:58.500Z,3.80
2022-11-06T17:54:32.160Z,3.78
2022-11-06T17:57:01.349Z,4.00
2022-11-06T17:59:31.560Z,4.88
2022-11-06T18:01:58.549Z,4.10
2022-11-06T18:04:30.484Z,4.30
2022-11-06T18:06:57.199Z,4.00
2022-11-06T18:09:24.102Z,4.38
2022-11-06T18:11:52.069Z,4.13
2022-11-06T18:14:19.398Z,3.60
2022-11-06T18:16:46.187Z,4.13
2022-11-06T18:19:16.454Z,4.35
2022-11-06T18:21:43.178Z,4.05
2022-11-06T18:24:10.004Z,5.40
2022-11-06T18:26:39.982Z,5.03
2022-11-06T18:29:08.167Z,4.18
2022-11-06T18:31:35.546Z,3.38
2022-11-06T18:34:03.583Z,3.35
2022-11-06T18:36:32.033Z,3.03
2022-11-06T18:38:58.892Z,3.40
2022-11-06T18:41:25.449Z,3.85
2022-11-06T18:43:57.301Z,3.55
2022-11-06T18:46:26.687Z,3.17
2022-11-06T18:48:54.789Z,2.42
2022-11-06T18:51:34.417Z,2.88
2022-11-06T18:54:04.879Z,2.45
2022-11-06T18:56:32.345Z,2.38
2022-11-06T18:58:59.575Z,1.80
2022-11-06T19:01:26.428Z,2.13
2022-11-06T19:03:53.146Z,2.25
2022-11-06T19:06:21.137Z,1.80
2022-11-06T19:08:49.013Z,2.28
2022-11-06T19:11:17.436Z,1.98
2022-11-06T19:13:47.984Z,1.88
2022-11-06T19:16:16.707Z,2.50
2022-11-06T19:18:43.321Z,3.10
2022-11-06T19:21:11.458Z,3.00
2022-11-06T19:23:40.875Z,2.83
2022-11-06T19:28:57.982Z,2.30
2022-11-06T19:31:28.786Z,1.60
2022-11-06T19:33:56.895Z,2.47
2022-11-06T19:36:25.072Z,2.33
2022-11-06T19:38:52.161Z,2.50
2022-11-06T19:41:18.815Z,2.38
2022-11-06T19:43:45.391Z,3.22
2022-11-06T19:46:12.030Z,2.92
2022-11-06T19:48:38.646Z,2.30
2022-11-06T19:51:09.927Z,2.05
2022-11-06T19:53:36.961Z,1.02
2022-11-06T19:56:08.368Z,1.40
2022-11-06T19:58:35.747Z,0.68
2022-11-06T20:01:15.600Z,1.23
2022-11-06T20:03:42.945Z,2.20
2022-11-06T20:06:10.485Z,1.10
2022-11-06T20:08:38.621Z,1.55
2022-11-06T20:11:14.151Z,1.23
2022-11-06T20:13:42.317Z,1.30
2022-11-06T20:16:12.729Z,1.05
2022-11-06T20:18:39.434Z,1.60
2022-11-06T20:21:08.340Z,2.58
2022-11-06T20:23:35.747Z,1.58
2022-11-06T20:26:02.937Z,1.50
2022-11-06T20:28:29.502Z,1.10
2022-11-06T20:30:56.651Z,1.35
2022-11-06T20:33:23.876Z,0.90
2022-11-06T20:35:50.497Z,1.00
2022-11-06T20:38:17.574Z,0.80
2022-11-06T20:40:44.854Z,0.80
2022-11-06T20:43:12.283Z,0.80
2022-11-06T20:45:39.836Z,0.70
2022-11-06T20:48:07.659Z,0.60
2022-11-06T20:50:34.295Z,1.00
2022-11-06T20:53:00.956Z,1.08
2022-11-06T20:55:27.630Z,1.20
2022-11-06T20:57:54.290Z,1.02
2022-11-06T21:00:21.346Z,1.13
2022-11-06T21:02:48.318Z,0.60
2022-11-06T21:05:15.120Z,1.20
2022-11-06T21:07:41.806Z,1.45
2022-11-06T21:10:10.966Z,1.67
2022-11-06T21:12:37.970Z,1.70
2022-11-06T21:15:05.042Z,0.93
2022-11-06T21:17:31.603Z,3.92
2022-11-06T21:19:58.161Z,1.08
2022-11-06T21:22:24.773Z,1.23
2022-11-06T21:24:51.342Z,0.65
2022-11-06T21:27:17.918Z,0.60
2022-11-06T21:29:45.092Z,0.68
2022-11-06T21:32:11.657Z,1.00
2022-11-06T21:34:38.234Z,1.02
2022-11-06T21:37:04.867Z,1.02
2022-11-06T21:39:35.890Z,0.60
2022-11-06T21:42:04.908Z,0.45
2022-11-06T21:44:31.876Z,0.60
2022-11-06T21:46:58.474Z,0.30
2022-11-06T21:49:25.145Z,0.30
2022-11-06T21:51:51.731Z,0.50
2022-11-06T21:54:36.968Z,0.43
2022-11-06T21:57:03.732Z,0.25
2022-11-06T21:59:30.535Z,0.30
2022-11-06T22:01:57.569Z,0.50
2022-11-06T22:04:24.402Z,0.25
2022-11-06T22:06:54.827Z,0.40
2022-11-06T22:09:25.294Z,0.20
2022-11-06T22:11:53.057Z,0.30
2022-11-06T22:14:19.669Z,0.32
2022-11-06T22:16:47.338Z,0.20
2022-11-06T22:19:16.053Z,0.35
2022-11-06T22:21:43.180Z,0.40
2022-11-06T22:24:12.363Z,0.40
2022-11-06T22:26:39.704Z,0.30
2022-11-06T22:29:10.553Z,0.15
2022-11-06T22:31:37.413Z,0.50
2022-11-06T22:34:04.034Z,0.30
2022-11-06T22:36:31.016Z,0.50
2022-11-06T22:38:59.672Z,0.40
2022-11-06T22:41:26.809Z,0.40
2022-11-06T22:43:58.691Z,0.60
2022-11-06T22:46:26.327Z,0.30
2022-11-06T22:48:56.043Z,0.30
2022-11-06T22:51:25.308Z,0.30
2022-11-06T22:53:52.823Z,0.45
2022-11-06T22:56:21.007Z,0.25
2022-11-06T22:58:47.705Z,0.30
2022-11-06T23:01:14.600Z,0.30
2022-11-06T23:03:41.361Z,0.20
2022-11-06T23:06:09.595Z,0.38
2022-11-06T23:08:39.804Z,0.38
2022-11-06T23:11:10.979Z,0.40
2022-11-06T23:13:38.362Z,0.30
2022-11-06T23:16:10.396Z,0.22
2022-11-06T23:18:37.406Z,0.30
2022-11-06T23:21:18.761Z,0.50
2022-11-06T23:23:45.894Z,0.30
2022-11-06T23:26:17.926Z,0.30
2022-11-06T23:28:45.936Z,0.30
2022-11-06T23:31:14.985Z,0.30
2022-11-06T23:33:42.808Z,0.30
2022-11-06T23:36:12.466Z,0.20
2022-11-06T23:38:39.205Z,0.17
2022-11-06T23:41:32.983Z,0.30
2022-11-06T23:44:00.155Z,0.40
2022-11-06T23:46:29.583Z,0.35
2022-11-06T23:48:56.855Z,0.30
2022-11-06T23:51:24.975Z,0.30
2022-11-06T23:53:52.042Z,0.30
2022-11-06T23:56:18.651Z,0.30
2022-11-06T23:58:48.227Z,0.15
